createdAt,value
2023-04-16T00:03:13.921Z,0
2023-04-16T00:08:29.205Z,0
2023-04-16T00:45:36.840Z,0
2023-04-16T00:50:46.491Z,0
2023-04-16T00:56:02.797Z,0
2023-04-16T01:01:17.464Z,0
2023-04-16T01:06:33.906Z,0
2023-04-16T01:11:50.330Z,0
2023-04-16T01:17:07.801Z,0
2023-04-16T01:22:24.756Z,0
2023-04-16T01:27:42.304Z,0
2023-04-16T01:32:57.683Z,0
2023-04-16T01:38:14.143Z,0
2023-04-16T01:43:31.369Z,0
2023-04-16T01:48:47.296Z,0
2023-04-16T01:54:03.105Z,0
2023-04-16T01:59:19.139Z,0
2023-04-16T02:04:35.991Z,0
2023-04-16T02:09:52.894Z,0
2023-04-16T02:15:10.540Z,0
2023-04-16T02:20:27.525Z,0
2023-04-16T02:25:44.518Z,0
2023-04-16T02:31:01.064Z,0
2023-04-16T02:36:18.082Z,0
2023-04-16T02:41:33.940Z,0
2023-04-16T02:46:50.411Z,0
2023-04-16T02:52:06.342Z,0
2023-04-16T02:57:22.804Z,0
2023-04-16T03:02:39.764Z,0
2023-04-16T03:07:55.588Z,0
2023-04-16T03:13:09.201Z,0
2023-04-16T03:18:25.203Z,0
2023-04-16T03:23:41.541Z,0
2023-04-16T03:28:58.550Z,0
2023-04-16T03:34:14.715Z,0
2023-04-16T03:39:30.724Z,0
2023-04-16T03:44:47.414Z,0
2023-04-16T03:50:04.476Z,0
2023-04-16T04:22:06.918Z,2
2023-04-16T04:27:16.639Z,5
2023-04-16T04:32:32.929Z,8
2023-04-16T04:37:49.552Z,11
2023-04-16T04:43:05.682Z,15
2023-04-16T04:48:22.665Z,22
2023-04-16T04:53:39.481Z,32
2023-04-16T04:58:55.280Z,41
2023-04-16T05:04:11.637Z,56
2023-04-16T05:09:27.757Z,37
2023-04-16T05:14:45.202Z,40
2023-04-16T05:20:02.859Z,49
2023-04-16T05:25:18.654Z,62
2023-04-16T05:30:35.220Z,80
2023-04-16T05:35:51.521Z,88
2023-04-16T05:41:08.078Z,69
2023-04-16T05:46:24.252Z,158
2023-04-16T05:51:41.641Z,159
2023-04-16T05:56:59.028Z,192
2023-04-16T06:02:15.610Z,271
2023-04-16T06:07:32.684Z,294
2023-04-16T06:12:48.174Z,304
2023-04-16T06:18:05.148Z,508
2023-04-16T06:23:21.680Z,799
2023-04-16T06:28:37.831Z,809
2023-04-16T06:33:53.848Z,567
2023-04-16T06:39:10.606Z,706
2023-04-16T06:44:25.633Z,881
2023-04-16T06:49:43.699Z,777
2023-04-16T06:55:00.567Z,660
2023-04-16T07:00:16.101Z,475
2023-04-16T07:05:32.096Z,540
2023-04-16T07:10:49.145Z,559
2023-04-16T07:16:06.857Z,608
2023-04-16T07:21:23.569Z,664
2023-04-16T07:26:38.746Z,898
2023-04-16T08:03:43.080Z,1144
2023-04-16T08:08:51.995Z,957
2023-04-16T08:14:08.172Z,917
2023-04-16T08:19:25.598Z,1064
2023-04-16T08:24:42.414Z,1031
2023-04-16T08:30:01.058Z,1098
2023-04-16T08:35:17.016Z,1238
2023-04-16T08:40:32.827Z,2061
2023-04-16T08:45:51.124Z,1288
2023-04-16T08:51:07.685Z,1274
2023-04-16T08:56:24.401Z,1474
2023-04-16T09:01:41.502Z,1733
2023-04-16T09:06:58.706Z,1633
2023-04-16T09:12:15.831Z,1735
2023-04-16T09:17:32.625Z,1392
2023-04-16T09:22:48.763Z,1607
2023-04-16T09:28:04.298Z,1603
2023-04-16T09:33:20.794Z,1817
2023-04-16T09:38:37.366Z,2721
2023-04-16T09:43:55.340Z,2678
2023-04-16T09:49:11.758Z,2099
2023-04-16T09:54:26.507Z,2439
2023-04-16T09:59:42.883Z,2737
2023-04-16T10:04:58.929Z,2228
2023-04-16T10:10:14.333Z,2539
2023-04-16T10:15:30.492Z,3247
2023-04-16T10:20:47.552Z,3138
2023-04-16T10:26:04.088Z,3078
2023-04-16T10:31:21.457Z,3346
2023-04-16T10:36:37.056Z,2040
2023-04-16T10:41:53.848Z,2932
2023-04-16T10:47:10.044Z,2819
2023-04-16T10:52:27.037Z,2747
2023-04-16T10:57:42.693Z,2929
2023-04-16T11:02:59.157Z,2166
2023-04-16T11:45:16.391Z,4139
2023-04-16T11:50:25.709Z,3658
2023-04-16T11:55:41.850Z,2814
2023-04-16T12:06:15.203Z,2763
2023-04-16T12:11:31.123Z,2763
2023-04-16T12:16:47.077Z,2760
2023-04-16T12:22:02.439Z,1945
2023-04-16T12:27:19.196Z,2037
2023-04-16T12:32:35.666Z,2719
2023-04-16T13:14:55.695Z,2947
2023-04-16T13:20:05.171Z,3046
2023-04-16T13:25:21.241Z,2679
2023-04-16T13:30:36.968Z,3100
2023-04-16T13:35:54.088Z,3329
2023-04-16T13:41:09.660Z,3954
2023-04-16T13:46:26.454Z,3849
2023-04-16T13:51:43.464Z,3768
2023-04-16T13:57:00.305Z,2950
2023-04-16T14:02:17.934Z,2774
2023-04-16T14:07:34.004Z,2628
2023-04-16T14:12:49.943Z,2378
2023-04-16T14:18:05.684Z,1815
2023-04-16T14:23:21.836Z,1730
2023-04-16T14:28:37.845Z,2001
2023-04-16T14:33:54.487Z,2404
2023-04-16T14:39:12.496Z,1984
2023-04-16T14:44:27.044Z,1833
2023-04-16T14:49:43.767Z,2395
2023-04-16T14:55:01.387Z,2533
2023-04-16T15:00:17.424Z,1739
2023-04-16T15:05:34.011Z,1446
2023-04-16T15:10:51.818Z,1159
2023-04-16T15:16:07.454Z,1183
2023-04-16T15:21:24.245Z,1117
2023-04-16T15:26:40.333Z,738
2023-04-16T15:31:57.923Z,651
2023-04-16T15:37:13.373Z,664
2023-04-16T15:42:30.162Z,1181
2023-04-16T15:47:47.519Z,1616
2023-04-16T15:53:04.106Z,1724
2023-04-16T15:58:20.501Z,1356
2023-04-16T16:03:36.968Z,1234
2023-04-16T16:08:52.014Z,1479
2023-04-16T16:14:07.439Z,2042
2023-04-16T16:56:28.361Z,822
2023-04-16T17:01:38.229Z,741
2023-04-16T17:06:53.512Z,672
2023-04-16T17:12:10.445Z,572
2023-04-16T17:17:27.379Z,543
2023-04-16T17:22:42.087Z,481
2023-04-16T17:28:00.075Z,515
2023-04-16T17:33:17.658Z,518
2023-04-16T17:38:34.495Z,404
2023-04-16T17:43:50.237Z,332
2023-04-16T17:49:06.354Z,277
2023-04-16T17:54:23.567Z,213
2023-04-16T17:59:39.634Z,173
2023-04-16T18:04:55.778Z,119
2023-04-16T18:10:10.431Z,71
2023-04-16T18:15:26.964Z,51
2023-04-16T18:20:42.425Z,22
2023-04-16T18:26:00.166Z,10
2023-04-16T18:31:21.919Z,10
2023-04-16T18:36:34.661Z,5
2023-04-16T18:41:51.377Z,3
2023-04-16T18:47:06.648Z,2
2023-04-16T18:52:24.482Z,0
2023-04-16T18:57:41.935Z,0
2023-04-16T19:02:59.302Z,0
2023-04-16T19:08:14.796Z,0
2023-04-16T19:13:31.692Z,0
2023-04-16T19:18:48.878Z,0
2023-04-16T19:24:07.594Z,0
2023-04-16T19:29:24.086Z,0
2023-04-16T19:34:41.249Z,0
2023-04-16T19:39:57.053Z,0
2023-04-16T19:45:14.166Z,0
2023-04-16T19:50:31.409Z,0
2023-04-16T20:27:37.498Z,0
2023-04-16T20:32:46.749Z,0
2023-04-16T20:38:02.347Z,0
2023-04-16T20:43:19.219Z,0
2023-04-16T20:48:36.623Z,0
2023-04-16T20:53:57.062Z,0
2023-04-16T20:59:14.082Z,0
2023-04-16T21:04:29.848Z,0
2023-04-16T21:09:45.692Z,0
2023-04-16T21:15:01.269Z,0
2023-04-16T21:20:19.130Z,0
2023-04-16T21:25:35.293Z,0
2023-04-16T21:30:50.317Z,0
2023-04-16T21:36:07.343Z,0
2023-04-16T21:41:24.639Z,0
2023-04-16T21:46:42.461Z,0
2023-04-16T21:51:58.241Z,0
2023-04-16T21:57:14.994Z,0
2023-04-16T22:02:31.869Z,0
2023-04-16T22:07:48.237Z,0
2023-04-16T22:13:04.564Z,0
2023-04-16T22:18:21.605Z,0
2023-04-16T22:23:38.336Z,0
2023-04-16T22:28:55.606Z,0
2023-04-16T22:34:11.942Z,0
2023-04-16T22:39:28.871Z,0
2023-04-16T22:44:45.150Z,0
2023-04-16T22:50:01.142Z,0
2023-04-16T22:55:17.752Z,0
2023-04-16T23:00:34.241Z,0
2023-04-16T23:05:51.044Z,0
2023-04-16T23:11:08.007Z,0
2023-04-16T23:16:24.918Z,0
2023-04-16T23:21:41.460Z,0
2023-04-16T23:26:57.130Z,0
